Veurne, Belgium
Current Conditions -  °F | °C
As of 3:33 PM on Thursday 27 Nov 2014 (Local Time) from EBFN Reporting Station
Haze Haze  
Wind Chill: 11°   Ceiling: 4600
Heat Index: 11°   Visibility: 3mi
Dew Point: 10°   Wind: 5mph
Humidity: 94%   Direction: 130°SE
Pressure: 29.65"   Gusts: NA
Location:  51.07°N, 2.66°E
Report Text: EBFN 271433Z 13004KT 4800 BR FEW007 SCT009 BKN046 11/10 Q1004 GRN GRN TEMPO YLO
Loading
Personal Weather Stations






























Interactive Weather Map New forecast layout! Learn more

10-Day Weather Forecast

Advertisements
Track Severe Weather on mobile